Borssele, Netherlands
Current Conditions -  °F | °C
As of 11:25 AM on Saturday 20 Dec 2014 (Local Time) from EHFS Reporting Station
Scattered Clouds Scattered Clouds  
Wind Chill: 40°   Ceiling: Unl
Heat Index: 48°   Visibility: 6mi
Dew Point: 39°   Wind: 28mph
Humidity: 71%   Direction: 270°W
Pressure: 30.15"   Gusts: NA
Location:  51.42°N, 3.73°E
Report Text: EHFS 201025Z AUTO 27024KT 9999 FEW027/// SCT040/// 09/04 Q1021
Loading
Personal Weather Stations






























Interactive Weather Map New forecast layout! Learn more

10-Day Weather Forecast

Advertisements
Track Severe Weather on mobile